createdAt,value
2018-11-13T00:00:47.039Z,84.13
2018-11-13T00:03:15.812Z,82.72
2018-11-13T00:05:45.710Z,81.85
2018-11-13T00:08:14.281Z,81.98
2018-11-13T00:10:42.652Z,81.89
2018-11-13T00:13:10.341Z,83.51
2018-11-13T00:15:38.051Z,82.15
2018-11-13T00:18:05.741Z,81.41
2018-11-13T00:20:33.639Z,81.26
2018-11-13T00:23:01.385Z,81.64
2018-11-13T00:25:29.468Z,81.14
2018-11-13T00:27:57.256Z,81.83
2018-11-13T00:30:25.282Z,82.36
2018-11-13T00:32:52.970Z,82.60
2018-11-13T00:35:21.264Z,83.06
2018-11-13T00:37:49.469Z,83.46
2018-11-13T00:40:17.817Z,84.06
2018-11-13T00:42:46.053Z,83.08
2018-11-13T00:45:13.862Z,82.54
2018-11-13T00:47:41.830Z,82.27
2018-11-13T00:50:12.870Z,82.34
2018-11-13T00:52:41.428Z,81.69
2018-11-13T00:55:09.206Z,81.90
2018-11-13T00:57:37.169Z,82.72
2018-11-13T01:00:09.186Z,81.67
2018-11-13T01:02:36.757Z,82.30
2018-11-13T01:05:07.101Z,82.39
2018-11-13T01:07:34.857Z,82.54
2018-11-13T01:10:02.505Z,83.05
2018-11-13T01:12:30.220Z,82.79
2018-11-13T01:14:57.938Z,84.11
2018-11-13T01:17:25.631Z,83.57
2018-11-13T01:19:53.309Z,84.14
2018-11-13T01:22:21.090Z,83.49
2018-11-13T01:24:48.789Z,81.78
2018-11-13T01:27:16.464Z,83.81
2018-11-13T01:29:52.308Z,83.88
2018-11-13T01:32:20.050Z,83.62
2018-11-13T01:34:47.824Z,83.31
2018-11-13T01:37:15.565Z,83.51
2018-11-13T01:39:43.212Z,84.17
2018-11-13T01:42:10.977Z,85.55
2018-11-13T01:44:38.697Z,83.05
2018-11-13T01:47:06.589Z,82.42
2018-11-13T01:49:34.373Z,82.24
2018-11-13T01:52:01.975Z,81.95
2018-11-13T01:54:29.769Z,82.40
2018-11-13T01:56:57.365Z,81.97
2018-11-13T01:59:25.017Z,84.20
2018-11-13T02:01:52.728Z,84.61
2018-11-13T02:04:20.481Z,84.46
2018-11-13T02:06:48.148Z,85.40
2018-11-13T02:09:15.905Z,84.63
2018-11-13T02:11:43.597Z,85.51
2018-11-13T02:14:11.301Z,84.31
2018-11-13T02:16:39.011Z,85.34
2018-11-13T02:19:06.738Z,84.78
2018-11-13T02:21:34.512Z,85.23
2018-11-13T02:24:02.261Z,84.81
2018-11-13T02:26:29.992Z,85.20
2018-11-13T02:28:57.669Z,86.17
2018-11-13T02:31:25.424Z,85.72
2018-11-13T02:33:53.119Z,83.74
2018-11-13T02:36:20.834Z,85.29
2018-11-13T02:38:48.494Z,83.97
2018-11-13T02:41:16.313Z,85.10
2018-11-13T02:43:43.992Z,83.67
2018-11-13T02:46:11.644Z,83.47
2018-11-13T02:48:39.394Z,83.52
2018-11-13T02:51:07.082Z,83.22
2018-11-13T02:53:34.772Z,82.66
2018-11-13T02:56:02.496Z,83.44
2018-11-13T02:58:30.197Z,82.47
2018-11-13T03:00:57.985Z,84.14
2018-11-13T03:03:25.652Z,85.34
2018-11-13T03:05:53.336Z,84.61
2018-11-13T03:08:21.040Z,83.76
2018-11-13T03:10:48.800Z,83.00
2018-11-13T03:13:16.477Z,85.66
2018-11-13T03:15:44.224Z,84.86
2018-11-13T03:18:11.909Z,85.79
2018-11-13T03:20:39.653Z,85.05
2018-11-13T03:23:07.351Z,83.91
2018-11-13T03:25:35.091Z,85.10
2018-11-13T03:28:02.905Z,85.89
2018-11-13T03:30:30.626Z,86.68
2018-11-13T03:32:58.341Z,85.47
2018-11-13T03:35:26.069Z,85.22
2018-11-13T03:37:53.781Z,84.90
2018-11-13T03:40:21.501Z,84.69
2018-11-13T03:42:49.607Z,85.64
2018-11-13T03:45:17.501Z,86.50
2018-11-13T03:47:45.332Z,85.48
2018-11-13T03:50:16.164Z,85.76
2018-11-13T03:52:44.307Z,86.31
2018-11-13T03:55:12.563Z,85.69
2018-11-13T03:57:41.092Z,85.49
2018-11-13T04:00:11.895Z,85.33
2018-11-13T04:02:40.084Z,86.14
2018-11-13T04:05:09.526Z,84.67
2018-11-13T04:07:43.404Z,84.23
2018-11-13T04:10:12.448Z,84.24
2018-11-13T04:12:40.333Z,83.96
2018-11-13T04:15:10.299Z,86.09
2018-11-13T04:17:38.221Z,85.08
2018-11-13T04:20:08.062Z,84.64
2018-11-13T04:22:35.812Z,85.57
2018-11-13T04:25:03.552Z,84.94
2018-11-13T04:27:31.249Z,84.41
2018-11-13T04:29:59.013Z,85.15
2018-11-13T04:32:26.740Z,84.62
2018-11-13T04:34:54.505Z,85.05
2018-11-13T04:37:22.184Z,84.43
2018-11-13T04:39:50.445Z,84.92
2018-11-13T04:42:18.104Z,85.70
2018-11-13T04:44:45.789Z,85.56
2018-11-13T04:47:13.485Z,85.87
2018-11-13T04:49:41.253Z,85.97
2018-11-13T04:52:09.012Z,86.37
2018-11-13T04:54:36.713Z,86.85
2018-11-13T04:57:05.193Z,85.61
2018-11-13T04:59:32.897Z,84.46
2018-11-13T05:02:00.661Z,84.66
2018-11-13T05:04:28.369Z,85.56
2018-11-13T05:06:56.297Z,85.07
2018-11-13T05:09:24.048Z,85.47
2018-11-13T05:11:51.776Z,85.42
2018-11-13T05:14:19.441Z,85.93
2018-11-13T05:16:47.140Z,86.16
2018-11-13T05:19:14.873Z,85.90
2018-11-13T05:21:42.572Z,86.47
2018-11-13T05:24:10.259Z,87.29
2018-11-13T05:26:37.947Z,87.49
2018-11-13T05:29:05.693Z,87.99
2018-11-13T05:31:33.452Z,87.53
2018-11-13T05:34:01.086Z,86.85
2018-11-13T05:36:28.737Z,87.37
2018-11-13T05:38:56.448Z,86.41
2018-11-13T05:41:24.194Z,86.56
2018-11-13T05:43:51.909Z,86.68
2018-11-13T05:46:19.601Z,85.90
2018-11-13T05:48:47.277Z,86.83
2018-11-13T05:51:15.117Z,86.81
2018-11-13T05:53:42.961Z,87.05
2018-11-13T05:56:10.709Z,87.07
2018-11-13T05:58:38.761Z,87.72
2018-11-13T06:01:06.729Z,87.19
2018-11-13T06:03:34.469Z,87.22
2018-11-13T06:06:02.657Z,87.35
2018-11-13T06:08:30.324Z,87.65
2018-11-13T06:10:58.000Z,86.94
2018-11-13T06:13:25.669Z,87.83
2018-11-13T06:15:53.417Z,87.34
2018-11-13T06:18:21.181Z,86.52
2018-11-13T06:20:48.811Z,87.23
2018-11-13T06:23:16.541Z,86.99
2018-11-13T06:25:44.952Z,86.70
2018-11-13T06:28:12.613Z,87.23
2018-11-13T06:30:40.309Z,86.31
2018-11-13T06:33:08.036Z,87.21
2018-11-13T06:35:35.692Z,87.43
2018-11-13T06:38:03.452Z,87.19
2018-11-13T06:40:31.524Z,87.44
2018-11-13T06:42:59.132Z,87.14
2018-11-13T06:45:26.851Z,86.84
2018-11-13T06:47:54.562Z,87.89
2018-11-13T06:50:22.235Z,86.91
2018-11-13T06:52:50.352Z,87.00
2018-11-13T06:55:22.161Z,87.09
2018-11-13T06:57:50.020Z,87.42
2018-11-13T07:00:17.945Z,87.09
2018-11-13T07:02:45.677Z,87.42
2018-11-13T07:05:14.817Z,87.19
2018-11-13T07:07:42.889Z,86.46
2018-11-13T07:10:12.807Z,86.70
2018-11-13T07:12:41.812Z,87.37
2018-11-13T07:15:11.397Z,87.13
2018-11-13T07:17:39.300Z,88.32
2018-11-13T07:20:07.324Z,87.48
2018-11-13T07:22:35.069Z,87.61
2018-11-13T07:25:02.914Z,86.60
2018-11-13T07:27:35.015Z,86.30
2018-11-13T07:30:03.289Z,87.48
2018-11-13T07:32:31.051Z,86.89
2018-11-13T07:34:58.698Z,87.47
2018-11-13T07:37:26.417Z,87.42
2018-11-13T07:39:54.136Z,88.42
2018-11-13T07:42:21.855Z,88.25
2018-11-13T07:44:49.518Z,87.80
2018-11-13T07:47:17.296Z,87.71
2018-11-13T07:49:44.964Z,88.22
2018-11-13T07:52:12.615Z,88.29
2018-11-13T07:54:41.125Z,88.16
2018-11-13T07:57:08.824Z,88.60
2018-11-13T07:59:36.900Z,88.34
2018-11-13T08:02:04.706Z,88.39
2018-11-13T08:04:33.276Z,87.70
2018-11-13T08:07:01.093Z,87.66
2018-11-13T08:09:28.882Z,87.49
2018-11-13T08:11:56.553Z,86.76
2018-11-13T08:14:24.337Z,86.28
2018-11-13T08:16:52.045Z,86.68
2018-11-13T08:19:19.805Z,87.38
2018-11-13T08:21:47.486Z,88.37
2018-11-13T08:24:15.178Z,87.23
2018-11-13T08:26:42.894Z,88.02
2018-11-13T08:29:10.523Z,87.52
2018-11-13T08:31:38.243Z,86.99
2018-11-13T08:34:05.973Z,87.21
2018-11-13T08:36:33.692Z,86.54
2018-11-13T08:39:01.430Z,86.56
2018-11-13T08:41:29.120Z,86.35
2018-11-13T08:43:56.876Z,86.38
2018-11-13T08:46:24.633Z,86.78
2018-11-13T08:48:52.337Z,86.96
2018-11-13T08:51:20.121Z,86.73
2018-11-13T08:53:47.832Z,87.18
2018-11-13T08:56:15.497Z,87.15
2018-11-13T08:58:43.232Z,87.26
2018-11-13T09:01:10.874Z,87.00
2018-11-13T09:03:38.589Z,87.22
2018-11-13T09:06:06.324Z,87.20
2018-11-13T09:08:34.017Z,86.94
2018-11-13T09:11:01.765Z,86.60
2018-11-13T09:13:29.451Z,86.65
2018-11-13T09:15:57.278Z,86.73
2018-11-13T09:18:24.988Z,86.73
2018-11-13T09:20:52.755Z,87.39
2018-11-13T09:23:20.408Z,86.51
2018-11-13T09:25:48.195Z,86.82
2018-11-13T09:28:15.873Z,86.57
2018-11-13T09:30:43.789Z,87.38
2018-11-13T09:33:11.322Z,87.11
2018-11-13T09:35:42.854Z,87.63
2018-11-13T09:38:10.585Z,87.72
2018-11-13T09:40:38.246Z,87.15
2018-11-13T09:43:05.921Z,86.92
2018-11-13T09:45:33.688Z,86.59
2018-11-13T09:48:01.402Z,86.96
2018-11-13T09:50:29.122Z,86.78
2018-11-13T09:52:56.768Z,86.37
2018-11-13T09:55:24.464Z,87.26
2018-11-13T09:57:52.228Z,87.31
2018-11-13T10:00:22.337Z,86.90
2018-11-13T10:02:52.313Z,86.99
2018-11-13T10:05:20.274Z,86.98
2018-11-13T10:07:48.372Z,87.66
2018-11-13T10:10:16.158Z,86.93
2018-11-13T10:12:43.841Z,87.70
2018-11-13T10:15:14.362Z,86.70
2018-11-13T10:17:42.188Z,86.87
2018-11-13T10:20:11.296Z,86.29
2018-11-13T10:22:39.450Z,86.34
2018-11-13T10:25:08.133Z,86.85
2018-11-13T10:27:35.898Z,87.14
2018-11-13T10:30:06.125Z,86.83
2018-11-13T10:32:33.843Z,87.06
2018-11-13T10:35:01.572Z,87.49
2018-11-13T10:37:29.249Z,86.29
2018-11-13T10:39:57.000Z,86.04
2018-11-13T10:42:24.732Z,86.65
2018-11-13T10:44:52.449Z,86.06
2018-11-13T10:47:20.154Z,86.29
2018-11-13T10:49:47.825Z,85.77
2018-11-13T10:52:15.491Z,86.02
2018-11-13T10:54:43.175Z,85.96
2018-11-13T10:57:10.934Z,85.43
2018-11-13T10:59:38.597Z,84.74
2018-11-13T11:02:11.960Z,85.35
2018-11-13T11:04:41.257Z,85.33
2018-11-13T11:07:09.337Z,85.29
2018-11-13T11:09:37.227Z,84.76
2018-11-13T11:12:05.792Z,85.07
2018-11-13T11:14:33.461Z,85.18
2018-11-13T11:17:01.185Z,84.44
2018-11-13T11:19:29.461Z,84.02
2018-11-13T11:21:57.106Z,83.54
2018-11-13T11:24:24.784Z,84.33
2018-11-13T11:26:52.489Z,83.70
2018-11-13T11:29:20.217Z,83.19
2018-11-13T11:31:47.913Z,83.11
2018-11-13T11:34:15.669Z,82.51
2018-11-13T11:36:43.382Z,82.73
2018-11-13T11:39:11.726Z,82.13
2018-11-13T11:41:39.423Z,82.16
2018-11-13T11:44:07.724Z,81.95
2018-11-13T11:46:35.481Z,82.42
2018-11-13T11:49:03.681Z,82.22
2018-11-13T11:51:32.365Z,82.10
2018-11-13T11:54:00.183Z,81.89
2018-11-13T11:56:27.853Z,82.97
2018-11-13T11:58:55.589Z,82.43
2018-11-13T12:01:23.367Z,82.54
2018-11-13T12:03:53.633Z,81.77
2018-11-13T12:06:21.376Z,81.93
2018-11-13T12:08:49.077Z,79.82
2018-11-13T12:11:16.745Z,81.50
2018-11-13T12:13:44.490Z,80.34
2018-11-13T12:16:12.125Z,80.01
2018-11-13T12:18:39.910Z,81.19
2018-11-13T12:21:07.596Z,79.86
2018-11-13T12:23:35.320Z,76.43
2018-11-13T12:26:03.092Z,79.06
2018-11-13T12:28:30.802Z,75.96
2018-11-13T12:30:58.488Z,77.73
2018-11-13T12:33:26.218Z,76.80
2018-11-13T12:35:54.123Z,77.45
2018-11-13T12:38:21.856Z,78.64
2018-11-13T12:40:49.635Z,75.39
2018-11-13T12:43:17.281Z,76.32
2018-11-13T12:45:44.949Z,77.15
2018-11-13T12:48:12.689Z,74.85
2018-11-13T12:50:46.009Z,75.87
2018-11-13T12:53:13.729Z,74.42
2018-11-13T12:55:41.532Z,77.94
2018-11-13T12:58:09.241Z,75.66
2018-11-13T13:00:36.992Z,75.18
2018-11-13T13:03:04.807Z,75.51
2018-11-13T13:05:32.508Z,76.18
2018-11-13T13:08:00.196Z,73.28
2018-11-13T13:10:27.958Z,73.96
2018-11-13T13:12:55.614Z,74.29
2018-11-13T13:15:23.254Z,76.08
2018-11-13T13:17:50.928Z,74.79
2018-11-13T13:20:21.084Z,72.71
2018-11-13T13:22:49.352Z,73.90
2018-11-13T13:25:18.685Z,73.01
2018-11-13T13:27:46.413Z,75.07
2018-11-13T13:30:16.222Z,75.28
2018-11-13T13:32:44.438Z,75.09
2018-11-13T13:35:53.841Z,71.69
2018-11-13T13:38:21.557Z,74.06
2018-11-13T13:40:50.505Z,74.17
2018-11-13T13:43:18.660Z,74.27
2018-11-13T13:45:47.069Z,72.93
2018-11-13T13:48:15.162Z,75.58
2018-11-13T13:50:42.893Z,74.14
2018-11-13T13:53:11.801Z,73.34
2018-11-13T13:55:39.855Z,72.56
2018-11-13T13:58:07.560Z,74.19
2018-11-13T14:00:35.400Z,72.60
2018-11-13T14:03:03.728Z,75.35
2018-11-13T14:05:31.416Z,72.66
2018-11-13T14:07:59.161Z,72.38
2018-11-13T14:10:26.893Z,73.85
2018-11-13T14:12:54.634Z,71.32
2018-11-13T14:15:22.438Z,72.42
2018-11-13T14:17:50.081Z,71.97
2018-11-13T14:20:19.025Z,71.22
2018-11-13T14:22:46.850Z,72.87
2018-11-13T14:25:14.897Z,71.36
2018-11-13T14:27:42.858Z,72.37
2018-11-13T14:30:16.192Z,70.82
2018-11-13T14:32:44.956Z,71.77
2018-11-13T14:35:13.049Z,69.07
2018-11-13T14:37:40.720Z,69.04
2018-11-13T14:40:13.688Z,69.49
2018-11-13T14:42:41.445Z,68.00
2018-11-13T14:45:09.532Z,70.12
2018-11-13T14:47:37.257Z,67.41
2018-11-13T14:50:08.817Z,70.60
2018-11-13T14:52:36.607Z,70.06
2018-11-13T14:55:07.049Z,70.80
2018-11-13T14:57:34.728Z,70.16
2018-11-13T15:00:02.504Z,70.66
2018-11-13T15:02:30.173Z,71.47
2018-11-13T15:04:57.938Z,71.07
2018-11-13T15:07:27.166Z,67.39
2018-11-13T15:09:53.261Z,70.65
2018-11-13T15:12:21.008Z,67.81
2018-11-13T15:14:48.744Z,71.30
2018-11-13T15:17:16.509Z,71.08
2018-11-13T15:19:44.237Z,71.99
2018-11-13T15:22:12.052Z,72.55
2018-11-13T15:24:39.638Z,71.89
2018-11-13T15:27:07.398Z,71.44
2018-11-13T15:29:35.105Z,71.90
2018-11-13T15:32:02.833Z,72.83
2018-11-13T15:34:30.498Z,72.75
2018-11-13T15:36:58.117Z,72.65
2018-11-13T15:39:25.730Z,74.12
2018-11-13T15:41:53.549Z,73.19
2018-11-13T15:44:21.330Z,70.71
2018-11-13T15:46:49.056Z,72.34
2018-11-13T15:49:16.992Z,73.79
2018-11-13T15:51:44.717Z,72.83
2018-11-13T15:54:12.368Z,73.43
2018-11-13T15:56:40.444Z,73.53
2018-11-13T15:59:08.726Z,72.29
2018-11-13T16:01:36.787Z,72.28
2018-11-13T16:04:04.720Z,72.08
2018-11-13T16:06:32.433Z,73.66
2018-11-13T16:09:00.431Z,73.24
2018-11-13T16:11:28.497Z,73.31
2018-11-13T16:13:56.399Z,72.47
2018-11-13T16:16:24.573Z,72.92
2018-11-13T16:18:52.672Z,71.94
2018-11-13T16:21:20.944Z,72.78
2018-11-13T16:23:49.060Z,72.35
2018-11-13T16:26:16.769Z,72.87
2018-11-13T16:28:44.513Z,71.84
2018-11-13T16:31:13.961Z,72.96
2018-11-13T16:33:41.645Z,72.74
2018-11-13T16:36:09.917Z,71.74
2018-11-13T16:38:37.590Z,72.81
2018-11-13T16:41:05.424Z,73.70
2018-11-13T16:43:33.165Z,73.75
2018-11-13T16:46:00.921Z,73.44
2018-11-13T16:48:28.588Z,73.97
2018-11-13T16:50:56.338Z,74.19
2018-11-13T16:53:24.040Z,74.32
2018-11-13T16:55:55.960Z,73.74
2018-11-13T16:58:24.039Z,74.38
2018-11-13T17:00:51.707Z,74.27
2018-11-13T17:03:19.515Z,74.38
2018-11-13T17:05:47.220Z,74.02
2018-11-13T17:08:14.909Z,73.24
2018-11-13T17:10:43.097Z,73.66
2018-11-13T17:13:10.785Z,73.06
2018-11-13T17:15:38.756Z,74.10
2018-11-13T17:18:06.729Z,74.84
2018-11-13T17:20:34.441Z,74.27
2018-11-13T17:23:02.162Z,74.08
2018-11-13T17:25:31.249Z,74.55
2018-11-13T17:27:59.012Z,74.21
2018-11-13T17:30:28.172Z,74.08
2018-11-13T17:32:57.442Z,74.46
2018-11-13T17:35:26.033Z,75.12
2018-11-13T17:37:54.476Z,75.55
2018-11-13T17:40:24.035Z,75.17
2018-11-13T17:42:53.317Z,74.81
2018-11-13T17:45:24.027Z,74.84
2018-11-13T17:47:51.892Z,75.20
2018-11-13T17:50:22.644Z,75.28
2018-11-13T17:52:50.739Z,75.41
2018-11-13T17:55:18.918Z,75.53
2018-11-13T17:57:48.313Z,75.87
2018-11-13T18:00:39.769Z,75.54
2018-11-13T18:03:09.262Z,75.68
2018-11-13T18:05:37.646Z,76.46
2018-11-13T18:08:06.205Z,75.70
2018-11-13T18:10:35.417Z,76.40
2018-11-13T18:13:03.625Z,76.95
2018-11-13T18:15:31.760Z,77.22
2018-11-13T18:17:59.950Z,77.29
2018-11-13T18:20:30.152Z,77.43
2018-11-13T18:22:57.952Z,77.53
2018-11-13T18:25:25.848Z,77.81
2018-11-13T18:27:54.843Z,77.23
2018-11-13T18:30:23.673Z,77.07
2018-11-13T18:32:51.664Z,77.48
2018-11-13T18:35:20.695Z,77.13
2018-11-13T18:37:49.115Z,77.04
2018-11-13T18:40:17.693Z,77.58
2018-11-13T18:42:46.768Z,77.38
2018-11-13T18:45:17.789Z,77.25
2018-11-13T18:47:45.572Z,76.93
2018-11-13T18:50:17.760Z,77.16
2018-11-13T18:52:45.415Z,76.89
2018-11-13T18:55:13.709Z,77.29
2018-11-13T18:57:41.876Z,77.74
2018-11-13T19:00:15.367Z,77.14
2018-11-13T19:02:43.056Z,77.47
2018-11-13T19:05:11.759Z,77.67
2018-11-13T19:07:39.694Z,78.21
2018-11-13T19:10:32.104Z,77.99
2018-11-13T19:13:01.068Z,78.30
2018-11-13T19:15:30.633Z,78.59
2018-11-13T19:17:58.435Z,78.44
2018-11-13T19:20:26.531Z,77.94
2018-11-13T19:22:54.239Z,78.50
2018-11-13T19:25:26.160Z,78.54
2018-11-13T19:27:54.618Z,78.50
2018-11-13T19:30:22.619Z,78.77
2018-11-13T19:32:50.390Z,79.08
2018-11-13T19:35:18.757Z,78.40
2018-11-13T19:37:47.255Z,79.14
2018-11-13T19:40:19.226Z,79.62
2018-11-13T19:42:48.681Z,79.78
2018-11-13T19:45:17.016Z,80.16
2018-11-13T19:47:44.665Z,79.99
2018-11-13T19:50:14.663Z,80.17
2018-11-13T19:52:42.292Z,80.50
2018-11-13T19:55:15.122Z,80.26
2018-11-13T19:57:43.516Z,80.53
2018-11-13T20:00:19.125Z,80.31
2018-11-13T20:02:48.796Z,80.38
2018-11-13T20:05:16.604Z,80.32
2018-11-13T20:07:44.347Z,80.98
2018-11-13T20:10:22.620Z,81.21
2018-11-13T20:12:51.133Z,80.82
2018-11-13T20:15:19.653Z,80.88
2018-11-13T20:17:48.277Z,81.42
2018-11-13T20:20:18.037Z,81.93
2018-11-13T20:22:46.726Z,81.43
2018-11-13T20:25:15.933Z,80.99
2018-11-13T20:27:43.621Z,81.09
2018-11-13T20:30:16.169Z,81.00
2018-11-13T20:32:43.893Z,81.58
2018-11-13T20:35:12.737Z,81.43
2018-11-13T20:37:41.698Z,81.08
2018-11-13T20:40:11.974Z,81.49
2018-11-13T20:42:40.214Z,81.46
2018-11-13T20:48:05.457Z,82.35
2018-11-13T20:50:33.737Z,82.22
2018-11-13T20:53:02.720Z,82.25
2018-11-13T20:55:30.501Z,82.52
2018-11-13T20:57:58.477Z,81.99
2018-11-13T21:00:28.066Z,81.87
2018-11-13T21:02:56.117Z,81.96
2018-11-13T21:05:24.399Z,82.53
2018-11-13T21:07:52.241Z,82.15
2018-11-13T21:10:21.196Z,82.49
2018-11-13T21:12:50.038Z,82.17
2018-11-13T21:15:18.899Z,83.02
2018-11-13T21:17:46.701Z,82.86
2018-11-13T21:20:15.858Z,83.33
2018-11-13T21:22:43.753Z,83.56
2018-11-13T21:25:12.856Z,83.60
2018-11-13T21:27:41.055Z,83.81
2018-11-13T21:30:12.067Z,83.49
2018-11-13T21:32:40.125Z,83.80
2018-11-13T21:35:09.949Z,84.01
2018-11-13T21:37:38.940Z,84.44
2018-11-13T21:40:09.540Z,84.52
2018-11-13T21:42:37.417Z,84.39
2018-11-13T21:45:06.989Z,83.93
2018-11-13T21:47:36.450Z,84.07
2018-11-13T21:50:07.262Z,84.69
2018-11-13T21:52:36.590Z,84.11
2018-11-13T21:55:06.366Z,83.44
2018-11-13T21:57:34.297Z,83.80
2018-11-13T22:00:01.937Z,84.41
2018-11-13T22:02:30.484Z,84.93
2018-11-13T22:04:58.176Z,84.74
2018-11-13T22:07:25.869Z,84.17
2018-11-13T22:09:53.783Z,84.87
2018-11-13T22:12:21.278Z,84.76
2018-11-13T22:14:48.951Z,84.62
2018-11-13T22:17:16.668Z,84.46
2018-11-13T22:19:44.686Z,84.59
2018-11-13T22:22:12.279Z,84.72
2018-11-13T22:24:39.933Z,84.90
2018-11-13T22:27:07.759Z,84.96
2018-11-13T22:29:35.771Z,85.62
2018-11-13T22:32:03.112Z,84.88
2018-11-13T22:34:30.794Z,84.95
2018-11-13T22:36:58.590Z,85.19
2018-11-13T22:39:26.317Z,85.81
2018-11-13T22:41:54.054Z,85.64
2018-11-13T22:44:21.926Z,85.31
2018-11-13T22:46:49.573Z,85.42
2018-11-13T22:49:17.209Z,85.79
2018-11-13T22:51:44.999Z,85.62
2018-11-13T22:54:12.597Z,85.46
2018-11-13T22:56:40.253Z,85.64
2018-11-13T22:59:07.957Z,86.37
2018-11-13T23:01:35.645Z,85.58
2018-11-13T23:04:03.689Z,86.29
2018-11-13T23:06:31.363Z,86.13
2018-11-13T23:08:59.026Z,86.15
2018-11-13T23:11:26.752Z,85.79
2018-11-13T23:13:54.424Z,86.07
2018-11-13T23:16:22.153Z,86.54
2018-11-13T23:18:49.889Z,86.16
2018-11-13T23:21:17.623Z,86.26
2018-11-13T23:23:45.280Z,86.51
2018-11-13T23:26:13.053Z,86.95
2018-11-13T23:28:42.675Z,86.95
2018-11-13T23:31:10.428Z,86.60
2018-11-13T23:33:38.139Z,86.57
2018-11-13T23:36:05.875Z,86.64
2018-11-13T23:38:33.593Z,86.82
2018-11-13T23:41:01.287Z,86.80
2018-11-13T23:43:29.046Z,86.37
2018-11-13T23:45:56.722Z,86.21
2018-11-13T23:48:24.460Z,86.20
2018-11-13T23:50:52.209Z,86.98
2018-11-13T23:53:19.941Z,86.97
2018-11-13T23:55:47.673Z,87.40
2018-11-13T23:58:15.453Z,87.04
